Time;durP1;ratioP1;P1;durP2;ratioP2;P2;SDS_P1;SDS_P2;PMS_P1;PMS_P2;Temp;Humidity;BMP_temperature;BMP_pressure;BME280_temperature;BME280_humidity;BME280_pressure;Samples;Min_cycle;Max_cycle;Signal;HPM_P1;HPM_P2
2022/10/02 00:02:20;;;;;;;7.90;2.20;;;;;;;19.57;52.50;101340.28;5063685;28;20041;-63
2022/10/02 00:04:59;;;;;;;5.53;1.67;;;;;;;19.63;52.56;101354.84;5063603;28;20033;-64
2022/10/02 00:07:36;;;;;;;5.55;1.63;;;;;;;19.57;52.47;101353.53;5063889;28;20487;-64
2022/10/02 00:10:11;;;;;;;4.68;1.80;;;;;;;19.63;52.50;101361.91;5063846;28;20067;-63
2022/10/02 00:12:37;;;;;;;7.38;1.92;;;;;;;19.61;52.50;101362.03;5063277;28;20032;-62
2022/10/02 00:15:13;;;;;;;8.05;2.00;;;;;;;19.61;52.42;101369.13;5063486;28;20032;-64
2022/10/02 00:17:43;;;;;;;7.18;1.90;;;;;;;19.60;52.49;101373.59;5063111;28;20040;-62
2022/10/02 00:20:14;;;;;;;5.80;2.00;;;;;;;19.55;52.52;101360.75;5062901;28;20766;-63
2022/10/02 00:22:53;;;;;;;8.32;2.47;;;;;;;19.57;52.46;101377.31;5063015;28;20384;-64
2022/10/02 00:25:43;;;;;;;8.77;2.17;;;;;;;19.58;52.64;101372.84;5063115;28;20496;-63
2022/10/02 00:28:21;;;;;;;8.20;2.28;;;;;;;19.55;52.48;101376.59;5062765;28;20723;-63
2022/10/02 00:31:22;;;;;;;6.78;1.92;;;;;;;19.56;52.68;101380.06;5063195;28;20028;-64
2022/10/02 00:34:00;;;;;;;7.00;1.95;;;;;;;19.55;52.80;101381.88;5063167;28;20067;-64
2022/10/02 00:36:41;;;;;;;8.23;1.85;;;;;;;19.55;52.65;101388.97;5062867;28;20601;-65
2022/10/02 00:39:25;;;;;;;9.27;2.15;;;;;;;19.49;52.68;101384.19;5062905;28;20361;-64
2022/10/02 00:42:05;;;;;;;6.65;2.10;;;;;;;19.53;52.77;101393.53;5062767;28;20035;-64
2022/10/02 00:44:46;;;;;;;6.25;2.00;;;;;;;19.53;52.51;101386.44;5062632;28;20040;-63
2022/10/02 00:47:47;;;;;;;8.70;2.00;;;;;;;19.53;52.77;101380.31;5062975;28;20520;-65
2022/10/02 00:50:31;;;;;;;7.85;2.13;;;;;;;19.52;52.89;101391.88;5062573;28;20028;-65
2022/10/02 00:53:21;;;;;;;10.40;4.07;;;;;;;19.51;52.84;101395.47;5062678;28;20051;-66
2022/10/02 00:56:03;;;;;;;6.32;1.92;;;;;;;19.51;52.77;101390.19;5062370;28;20044;-66
2022/10/02 00:58:50;;;;;;;6.95;1.90;;;;;;;19.43;52.99;101374.91;5062781;28;20116;-63
2022/10/02 01:01:27;;;;;;;6.00;1.73;;;;;;;19.43;52.95;101372.28;5062764;28;20054;-66
2022/10/02 01:03:55;;;;;;;7.45;1.95;;;;;;;19.42;52.93;101380.31;5062414;28;20032;-64
2022/10/02 01:06:26;;;;;;;7.45;1.85;;;;;;;19.47;52.79;101384.31;5062531;28;20039;-65
2022/10/02 01:08:52;;;;;;;7.20;2.10;;;;;;;19.46;52.86;101392.34;5061657;28;20035;-65
2022/10/02 01:11:20;;;;;;;7.35;2.00;;;;;;;19.48;52.69;101393.91;5061335;28;20040;-66
2022/10/02 01:13:45;;;;;;;5.30;1.73;;;;;;;19.41;52.92;101384.78;5060858;28;20419;-64
2022/10/02 01:16:12;;;;;;;5.32;2.00;;;;;;;19.47;52.99;101401.94;5061797;28;20032;-63
2022/10/02 01:18:38;;;;;;;7.45;1.80;;;;;;;19.47;52.90;101396.66;5062282;28;20032;-63
2022/10/02 01:21:14;;;;;;;6.00;1.90;;;;;;;19.48;52.92;101398.34;5062099;28;20404;-65
2022/10/02 01:23:46;;;;;;;6.03;2.10;;;;;;;19.47;52.85;101383.44;5061983;28;20083;-66
2022/10/02 01:26:11;;;;;;;6.88;1.70;;;;;;;19.43;52.95;101379.38;5061657;28;20032;-63
2022/10/02 01:28:36;;;;;;;7.32;1.85;;;;;;;19.43;52.80;101385.50;5061888;28;20039;-65
2022/10/02 01:31:09;;;;;;;8.20;2.28;;;;;;;19.39;53.16;101378.75;5061822;28;20036;-63
2022/10/02 01:33:37;;;;;;;6.35;1.77;;;;;;;19.45;53.08;101377.44;5062021;28;20036;-62
2022/10/02 01:36:03;;;;;;;7.60;1.80;;;;;;;19.45;53.08;101377.44;5061775;28;20032;-63
2022/10/02 01:38:28;;;;;;;8.15;2.53;;;;;;;19.22;52.94;101353.66;5061692;28;20081;-63
2022/10/02 01:40:54;;;;;;;5.68;1.70;;;;;;;19.36;53.14;101381.66;5061610;28;20036;-64
2022/10/02 01:43:48;;;;;;;7.10;2.03;;;;;;;19.40;53.10;101389.19;5061521;28;20051;-63
2022/10/02 01:46:13;;;;;;;6.82;1.80;;;;;;;19.42;53.08;101394.38;5060443;28;20044;-63
2022/10/02 01:48:57;;;;;;;5.83;1.60;;;;;;;19.40;53.12;101389.19;5061596;28;20380;-62
2022/10/02 01:51:43;;;;;;;7.53;2.05;;;;;;;19.42;53.19;101399.66;5061681;28;20354;-62
2022/10/02 01:54:28;;;;;;;8.10;2.53;;;;;;;19.36;53.17;101394.88;5061304;28;20032;-64
2022/10/02 01:57:07;;;;;;;6.97;2.05;;;;;;;19.42;53.06;101396.19;5061486;28;20979;-63
2022/10/02 01:59:49;;;;;;;5.75;1.65;;;;;;;19.35;53.00;101383.44;5061637;28;20055;-63
2022/10/02 02:02:25;;;;;;;5.78;1.65;;;;;;;19.33;53.14;101385.38;5061421;28;20040;-65
2022/10/02 02:05:14;;;;;;;6.70;1.83;;;;;;;19.32;53.20;101378.38;5060241;28;20029;-65
2022/10/02 02:08:12;;;;;;;6.55;1.80;;;;;;;19.39;53.33;101395.47;5061520;28;20025;-63
2022/10/02 02:10:47;;;;;;;8.57;1.60;;;;;;;19.34;53.34;101387.06;5059874;28;20037;-65
2022/10/02 02:13:22;;;;;;;8.80;2.35;;;;;;;19.39;53.10;101390.19;5061307;28;20026;-63
2022/10/02 02:15:57;;;;;;;5.82;1.80;;;;;;;19.39;53.25;101400.75;5061324;28;20040;-65
2022/10/02 02:18:38;;;;;;;6.88;2.00;;;;;;;19.30;53.21;101375.03;5061247;28;20115;-63
2022/10/02 02:21:21;;;;;;;8.73;2.22;;;;;;;19.30;53.23;101390.91;5061632;28;20178;-63
2022/10/02 02:23:48;;;;;;;9.32;2.17;;;;;;;19.31;53.38;101387.31;5060369;28;20559;-63
2022/10/02 02:26:17;;;;;;;7.40;1.70;;;;;;;19.28;53.33;101390.19;5061204;28;20037;-62
2022/10/02 02:28:48;;;;;;;7.18;1.88;;;;;;;19.36;53.46;101394.88;5061214;28;20107;-65
2022/10/02 02:31:19;;;;;;;7.32;2.08;;;;;;;19.30;53.39;101390.06;5061061;28;20024;-64
2022/10/02 02:33:55;;;;;;;9.20;2.05;;;;;;;19.27;53.62;101387.66;5061406;28;20033;-63
2022/10/02 02:36:28;;;;;;;7.30;1.90;;;;;;;19.28;53.66;101403.41;5061279;28;20173;-61
2022/10/02 02:38:59;;;;;;;5.22;1.90;;;;;;;19.28;53.53;101394.59;5060904;28;20059;-62
2022/10/02 02:41:27;;;;;;;7.20;2.10;;;;;;;19.25;53.60;101390.41;5060980;28;20037;-66
2022/10/02 02:44:01;;;;;;;6.97;1.95;;;;;;;19.36;53.61;101400.16;5061313;28;20028;-64
2022/10/02 02:47:02;;;;;;;8.00;2.00;;;;;;;19.24;53.58;101378.16;5060999;28;20754;-64
2022/10/02 02:49:24;;;;;;;6.90;1.85;;;;;;;19.36;53.54;101397.50;5060844;28;20032;-63
2022/10/02 02:51:53;;;;;;;6.95;1.77;;;;;;;19.30;53.84;101390.91;5060846;28;20115;-64
2022/10/02 02:55:01;;;;;;;7.18;2.10;;;;;;;19.34;53.51;101405.56;5060676;28;20036;-64
2022/10/02 02:57:32;;;;;;;7.32;1.85;;;;;;;19.30;53.56;101396.19;5057678;28;20684;-63
2022/10/02 03:00:01;;;;;;;6.85;1.65;;;;;;;19.35;53.73;101416.97;5061084;28;20051;-64
2022/10/02 03:02:26;;;;;;;7.00;1.80;;;;;;;19.27;53.72;101401.69;5060868;28;20028;-63
2022/10/02 03:04:51;;;;;;;5.82;1.90;;;;;;;19.27;53.55;101390.31;5060386;28;20051;-64
2022/10/02 03:07:17;;;;;;;8.13;1.70;;;;;;;19.32;53.71;101404.00;5060852;28;20032;-62
2022/10/02 03:09:54;;;;;;;6.40;1.80;;;;;;;19.28;53.63;101397.25;5060702;28;20044;-64
2022/10/02 03:12:33;;;;;;;5.60;1.70;;;;;;;19.30;53.51;101400.63;5061055;28;20452;-64
2022/10/02 03:15:21;;;;;;;5.80;1.80;;;;;;;19.30;53.53;101405.91;5060625;28;20028;-65
2022/10/02 03:17:53;;;;;;;6.20;1.70;;;;;;;19.24;53.49;101393.19;5057441;28;20037;-62
2022/10/02 03:20:41;;;;;;;7.07;1.58;;;;;;;19.31;53.57;101412.88;5060833;28;20029;-65
2022/10/02 03:23:22;;;;;;;5.90;1.65;;;;;;;19.29;53.46;101406.88;5060488;28;20159;-65
2022/10/02 03:25:59;;;;;;;5.97;1.48;;;;;;;19.29;53.54;101407.69;5060278;28;20037;-62
2022/10/02 03:28:50;;;;;;;4.18;1.20;;;;;;;19.29;53.71;101412.97;5061136;28;20033;-65
2022/10/02 03:31:18;;;;;;;4.90;1.55;;;;;;;19.26;53.40;101399.19;5060088;28;20041;-64
2022/10/02 03:33:44;;;;;;;6.63;1.75;;;;;;;19.27;53.44;101399.06;5060636;28;20158;-65
2022/10/02 03:36:13;;;;;;;4.65;1.48;;;;;;;19.21;53.67;101394.25;5063052;28;20485;-61
2022/10/02 03:38:39;;;;;;;5.43;1.40;;;;;;;19.20;53.31;101397.84;5064295;28;20025;-63
2022/10/02 03:41:05;;;;;;;6.63;1.55;;;;;;;19.24;53.53;101407.22;5063994;28;20044;-63
2022/10/02 03:43:30;;;;;;;3.78;1.40;;;;;;;19.23;53.55;101410.81;5064097;28;20376;-63
2022/10/02 03:45:55;;;;;;;5.93;1.58;;;;;;;19.24;53.49;101407.22;5064006;28;20059;-63
2022/10/02 03:48:21;;;;;;;5.38;1.20;;;;;;;19.26;53.66;101415.03;5064219;28;20063;-62
2022/10/02 03:50:49;;;;;;;4.70;1.25;;;;;;;19.25;53.44;101421.25;5063777;28;20391;-62
2022/10/02 03:53:28;;;;;;;6.15;1.50;;;;;;;19.17;53.40;101420.06;5064158;28;20032;-65
2022/10/02 03:55:59;;;;;;;4.22;1.40;;;;;;;19.25;53.35;101442.41;5063529;28;20033;-63
2022/10/02 03:58:24;;;;;;;6.32;1.50;;;;;;;19.18;53.63;101432.34;5063630;28;20123;-63
2022/10/02 04:01:02;;;;;;;4.60;1.60;;;;;;;19.26;53.14;101422.97;5063640;28;20111;-63
2022/10/02 04:03:47;;;;;;;6.05;1.42;;;;;;;19.26;53.41;101425.59;5063427;28;20040;-64
2022/10/02 04:06:24;;;;;;;6.13;1.33;;;;;;;19.26;53.50;101420.31;5063168;28;20170;-63
2022/10/02 04:08:55;;;;;;;5.38;1.52;;;;;;;19.25;53.46;101431.84;5063518;28;20085;-65
2022/10/02 04:11:32;;;;;;;5.32;1.50;;;;;;;19.24;53.54;101428.34;5063699;28;20107;-62
2022/10/02 04:14:06;;;;;;;4.72;1.50;;;;;;;19.25;53.57;101427.41;5063412;28;20143;-62
2022/10/02 04:16:45;;;;;;;6.78;1.58;;;;;;;19.16;53.62;101417.53;5063183;28;20033;-63
2022/10/02 04:19:23;;;;;;;3.78;1.60;;;;;;;19.24;53.61;101422.25;5063320;28;20037;-62
2022/10/02 04:22:07;;;;;;;5.97;1.50;;;;;;;19.23;53.50;101425.84;5063622;28;20038;-64
2022/10/02 04:24:46;;;;;;;5.10;1.50;;;;;;;19.15;53.61;101411.44;5063436;28;20048;-62
2022/10/02 04:27:28;;;;;;;4.45;1.55;;;;;;;19.16;53.36;101412.25;5063343;28;20039;-65
2022/10/02 04:30:01;;;;;;;5.68;1.90;;;;;;;19.23;53.52;101426.66;5063178;28;20028;-64
2022/10/02 04:32:30;;;;;;;5.88;1.60;;;;;;;19.18;53.69;101424.41;5063334;28;20033;-64
2022/10/02 04:34:56;;;;;;;7.63;2.00;;;;;;;19.14;53.53;101415.03;5063376;28;20020;-64
2022/10/02 04:37:30;;;;;;;4.55;1.65;;;;;;;19.16;53.55;101417.53;5063212;28;20117;-62
2022/10/02 04:40:50;;;;;;;5.05;1.63;;;;;;;19.20;53.55;101426.91;5063117;28;20506;-63
2022/10/02 04:43:42;;;;;;;4.70;1.85;;;;;;;19.20;53.83;101435.69;5020357;28;20048;-62
2022/10/02 04:46:39;;;;;;;5.30;1.80;;;;;;;19.20;53.74;101448.91;5062464;28;20495;-63
2022/10/02 04:49:10;;;;;;;6.07;1.70;;;;;;;19.20;53.67;101448.91;5062741;28;20400;-63
2022/10/02 04:51:35;;;;;;;4.97;1.70;;;;;;;19.20;53.72;101454.19;5062692;28;20039;-64
2022/10/02 04:54:18;;;;;;;5.33;1.80;;;;;;;19.20;53.73;101450.69;5062945;28;20037;-61
2022/10/02 04:56:50;;;;;;;8.18;1.95;;;;;;;19.13;53.93;101444.19;5062607;28;20029;-62
2022/10/02 04:59:48;;;;;;;5.10;1.65;;;;;;;19.14;53.89;101452.00;5062872;28;20029;-64
2022/10/02 05:02:35;;;;;;;5.38;1.90;;;;;;;19.21;53.84;101465.59;5062543;28;20051;-65
2022/10/02 05:05:24;;;;;;;6.50;1.80;;;;;;;19.19;54.00;101457.78;5062548;28;20115;-63
2022/10/02 05:08:11;;;;;;;6.03;1.77;;;;;;;19.19;54.13;101455.13;5062395;28;20039;-65
2022/10/02 05:10:45;;;;;;;5.60;2.10;;;;;;;19.19;54.02;101460.41;5062522;28;20036;-65
2022/10/02 05:13:31;;;;;;;7.60;2.25;;;;;;;19.20;54.00;101463.88;5062443;28;20074;-63
2022/10/02 05:16:15;;;;;;;6.75;1.90;;;;;;;19.19;54.07;101465.69;5061995;28;20812;-63
2022/10/02 05:19:04;;;;;;;6.53;2.58;;;;;;;19.12;53.92;101453.06;5062260;28;20079;-65
2022/10/02 05:21:44;;;;;;;5.03;1.95;;;;;;;19.20;54.11;101459.47;5062311;28;20041;-64
2022/10/02 05:24:42;;;;;;;5.78;1.98;;;;;;;19.15;54.03;101455.47;5061911;28;20149;-65
2022/10/02 05:27:17;;;;;;;6.40;2.20;;;;;;;19.19;54.03;101468.34;5062222;28;20040;-62
2022/10/02 05:30:06;;;;;;;7.57;2.42;;;;;;;19.13;54.07;101463.53;5062212;28;20035;-63
2022/10/02 05:32:39;;;;;;;5.15;2.03;;;;;;;19.16;54.00;101475.66;5061547;28;20036;-64
2022/10/02 05:35:52;;;;;;;6.43;2.50;;;;;;;19.12;54.22;101475.06;5062083;28;20256;-64
2022/10/02 05:38:22;;;;;;;5.47;2.30;;;;;;;19.20;53.85;101485.03;5039049;28;20041;-63
2022/10/02 05:41:03;;;;;;;6.00;2.28;;;;;;;19.00;54.02;101449.56;5057882;28;20182;-64
2022/10/02 05:43:57;;;;;;;7.40;2.20;;;;;;;19.15;54.09;101480.13;5061818;28;20036;-62
2022/10/02 05:46:25;;;;;;;6.23;2.30;;;;;;;19.18;53.72;101484.31;5061527;28;20119;-64
2022/10/02 05:49:01;;;;;;;4.47;2.00;;;;;;;19.23;53.91;101479.50;5061379;28;20071;-63
2022/10/02 05:51:54;;;;;;;6.47;2.42;;;;;;;19.25;53.76;101480.25;5061616;28;20039;-64
2022/10/02 05:54:24;;;;;;;5.97;2.45;;;;;;;19.26;53.76;101483.72;5061306;28;20028;-63
2022/10/02 05:56:58;;;;;;;6.07;2.55;;;;;;;19.21;53.83;101481.44;5060915;28;20089;-64
2022/10/02 05:59:29;;;;;;;;;;;;;;;19.25;53.83;101489.97;5062258;28;20033;-64
2022/10/02 06:01:57;;;;;;;5.47;2.20;;;;;;;19.21;53.83;101478.78;5061464;28;19961;-62
2022/10/02 06:04:34;;;;;;;6.70;2.40;;;;;;;19.21;53.79;101479.63;5061736;28;20028;-63
2022/10/02 06:07:09;;;;;;;5.47;2.05;;;;;;;19.26;53.66;101483.72;5061117;28;20457;-64
2022/10/02 06:09:40;;;;;;;6.00;2.15;;;;;;;19.09;53.79;101451.53;5061636;28;20028;-63
2022/10/02 06:12:14;;;;;;;5.50;2.08;;;;;;;19.20;53.73;101479.75;5061225;28;20028;-64
2022/10/02 06:14:45;;;;;;;;;;;;;;;19.26;53.80;101500.44;5061811;28;20021;-63
2022/10/02 06:17:19;;;;;;;5.00;2.13;;;;;;;19.23;53.69;101497.19;5060933;28;19916;-65
2022/10/02 06:19:52;;;;;;;;;;;;;;;19.28;53.65;101510.88;5062073;28;20036;-64
2022/10/02 06:22:23;;;;;;;5.63;2.08;;;;;;;19.30;53.65;101514.28;5061271;28;19909;-62
2022/10/02 06:25:01;;;;;;;6.90;2.30;;;;;;;19.24;53.71;101502.34;5060937;28;20050;-62
2022/10/02 06:27:30;;;;;;;5.95;2.08;;;;;;;19.24;53.69;101510.28;5059723;28;20036;-63
2022/10/02 06:30:01;;;;;;;5.25;2.08;;;;;;;19.30;53.96;101523.03;5060835;28;20032;-65
2022/10/02 06:33:00;;;;;;;5.03;1.75;;;;;;;19.33;53.54;101529.91;5061182;28;20025;-63
2022/10/02 06:36:00;;;;;;;7.55;2.83;;;;;;;19.31;54.14;101515.94;5060987;28;20029;-62
2022/10/02 06:39:00;;;;;;;7.25;2.08;;;;;;;19.29;53.91;101512.56;5061343;28;20464;-62
2022/10/02 06:41:40;;;;;;;5.13;1.85;;;;;;;19.36;53.97;101527.03;5061243;28;20029;-66
2022/10/02 06:44:12;;;;;;;6.15;2.28;;;;;;;19.32;53.84;101525.56;5060856;28;20404;-63
2022/10/02 06:46:52;;;;;;;7.53;2.30;;;;;;;19.32;54.20;101517.63;5060885;28;20067;-62
2022/10/02 06:49:39;;;;;;;7.05;2.35;;;;;;;19.29;53.87;101515.22;5059602;28;20032;-64
2022/10/02 06:52:26;;;;;;;6.22;2.20;;;;;;;19.41;54.09;101540.72;5061177;28;20035;-63
2022/10/02 06:55:31;;;;;;;7.88;2.40;;;;;;;19.35;54.09;101533.25;5060622;28;20078;-63
2022/10/02 06:58:11;;;;;;;6.03;2.42;;;;;;;19.43;54.17;101548.53;5060796;28;20460;-64
2022/10/02 07:00:48;;;;;;;5.43;2.08;;;;;;;19.40;54.22;101554.88;5060942;28;20121;-63
2022/10/02 07:03:26;;;;;;;5.82;1.95;;;;;;;19.45;54.26;101557.19;5060529;28;20835;-67
2022/10/02 07:05:58;;;;;;;5.93;2.10;;;;;;;19.45;54.52;101571.25;5060642;28;20041;-63
2022/10/02 07:08:23;;;;;;;7.30;2.10;;;;;;;19.46;54.90;101572.94;5060799;28;20036;-63
2022/10/02 07:10:54;;;;;;;6.50;2.07;;;;;;;19.48;54.84;101572.81;5063745;28;20032;-62
2022/10/02 07:13:19;;;;;;;5.47;1.90;;;;;;;19.49;54.96;101572.69;5064689;28;20077;-67
2022/10/02 07:16:29;;;;;;;6.73;2.40;;;;;;;19.50;54.84;101581.47;5064286;28;20028;-64
2022/10/02 07:19:06;;;;;;;8.45;2.00;;;;;;;19.45;54.96;101565.94;5053709;28;20048;-65
2022/10/02 07:21:38;;;;;;;6.20;2.17;;;;;;;19.42;54.60;101552.97;5064207;28;20035;-64
2022/10/02 07:24:28;;;;;;;6.45;2.10;;;;;;;19.56;55.09;101560.69;5064210;28;20055;-66
2022/10/02 07:27:05;;;;;;;5.82;2.08;;;;;;;19.58;55.38;101568.50;5061700;28;20426;-70
2022/10/02 07:29:40;;;;;;;6.53;2.08;;;;;;;19.60;55.61;101568.38;5063175;28;20029;-70
2022/10/02 07:32:46;;;;;;;5.47;2.05;;;;;;;19.63;55.42;101576.09;5062166;28;20024;-68
2022/10/02 07:35:30;;;;;;;5.43;2.03;;;;;;;19.66;55.56;101576.72;5063334;28;20472;-66
2022/10/02 07:38:10;;;;;;;4.10;2.08;;;;;;;19.72;55.50;101580.69;5062703;28;20131;-70
2022/10/02 07:40:51;;;;;;;7.43;2.17;;;;;;;19.73;55.21;101577.91;5063060;28;20086;-67
2022/10/02 07:43:23;;;;;;;7.05;2.50;;;;;;;19.82;55.01;101592.28;5063010;28;20032;-71
2022/10/02 07:46:12;;;;;;;8.05;2.40;;;;;;;19.68;55.17;101552.81;5063221;28;20036;-69
2022/10/02 07:49:11;;;;;;;5.55;2.25;;;;;;;19.86;54.93;101579.66;5063080;28;20461;-70
2022/10/02 07:51:53;;;;;;;6.32;2.70;;;;;;;19.86;54.89;101574.38;5063366;28;20078;-67
2022/10/02 07:54:51;;;;;;;5.85;2.13;;;;;;;19.90;54.77;101589.03;5063300;28;20056;-69
2022/10/02 07:57:21;;;;;;;8.98;2.30;;;;;;;19.90;54.77;101583.75;5062200;28;20468;-69
2022/10/02 07:59:49;;;;;;;8.25;2.25;;;;;;;19.93;54.79;101583.50;5062752;28;20052;-70
2022/10/02 08:02:49;;;;;;;7.50;2.20;;;;;;;19.91;54.54;101585.44;5061724;28;20373;-69
2022/10/02 08:05:22;;;;;;;8.13;2.80;;;;;;;19.97;55.46;101592.06;5062870;28;20032;-68
2022/10/02 08:07:52;;;;;;;7.57;2.90;;;;;;;19.96;55.64;101596.50;5063033;28;20032;-69
2022/10/02 08:10:24;;;;;;;8.00;3.30;;;;;;;20.01;56.03;101598.78;5062556;28;20039;-69
2022/10/02 08:13:06;;;;;;;8.02;2.65;;;;;;;20.02;56.03;101603.97;5061006;28;20060;-68
2022/10/02 08:15:35;;;;;;;8.05;2.65;;;;;;;20.00;56.34;101605.91;5063183;28;20487;-68
2022/10/02 08:18:12;;;;;;;8.73;3.38;;;;;;;20.11;56.45;101613.00;5062482;28;20025;-69
2022/10/02 08:20:42;;;;;;;10.93;3.58;;;;;;;20.16;56.44;101623.25;5061996;28;20040;-67
2022/10/02 08:23:22;;;;;;;7.65;2.88;;;;;;;20.11;55.98;101613.00;5062362;28;20040;-66
2022/10/02 08:26:00;;;;;;;7.00;2.90;;;;;;;20.23;56.09;101632.38;5062072;28;20080;-71
2022/10/02 08:29:04;;;;;;;7.60;2.83;;;;;;;20.18;55.80;101619.50;5062180;28;20508;-68
2022/10/02 08:31:29;;;;;;;6.18;2.20;;;;;;;20.27;55.99;101633.81;5062523;28;20025;-70
2022/10/02 08:33:56;;;;;;;7.60;2.95;;;;;;;20.21;55.92;101629.00;5062033;28;20125;-68
2022/10/02 08:36:30;;;;;;;5.13;2.55;;;;;;;20.30;55.82;101631.78;5062122;28;20368;-69
2022/10/02 08:39:09;;;;;;;;;;;;;;;20.28;56.40;101635.50;5062604;28;20028;-70
2022/10/02 08:42:10;;;;;;;8.77;2.83;;;;;;;20.28;56.03;101638.13;5062103;28;19904;-70
2022/10/02 08:45:09;;;;;;;7.55;2.65;;;;;;;20.25;56.19;101636.59;5066952;28;20471;-67
2022/10/02 08:47:46;;;;;;;7.40;2.90;;;;;;;20.32;56.02;101649.34;5062237;28;20028;-68
2022/10/02 08:50:42;;;;;;;7.72;2.67;;;;;;;20.36;55.99;101658.72;5062199;28;20515;-67
2022/10/02 08:53:45;;;;;;;8.65;2.88;;;;;;;20.37;56.19;101655.94;5061879;28;20936;-69
2022/10/02 08:56:22;;;;;;;6.97;2.63;;;;;;;20.37;56.32;101665.72;5061911;28;20490;-70
2022/10/02 08:59:22;;;;;;;6.32;2.35;;;;;;;20.36;55.91;101658.72;5062212;28;20115;-71
2022/10/02 09:02:03;;;;;;;6.45;2.38;;;;;;;20.36;56.27;101656.94;5061651;28;20032;-69
2022/10/02 09:04:48;;;;;;;11.02;2.72;;;;;;;20.35;56.40;101667.66;5061533;28;20039;-71
2022/10/02 09:07:16;;;;;;;6.40;2.75;;;;;;;20.33;56.61;101670.41;5074194;28;20097;-64
2022/10/02 09:09:41;;;;;;;9.18;3.20;;;;;;;20.35;56.65;101667.66;5061104;28;20473;-70
2022/10/02 09:12:20;;;;;;;7.00;2.55;;;;;;;20.38;56.21;101680.63;5059856;28;20029;-71
2022/10/02 09:14:58;;;;;;;7.38;2.70;;;;;;;20.35;56.29;101670.28;5062021;28;20115;-68
2022/10/02 09:17:46;;;;;;;7.82;2.42;;;;;;;20.37;56.48;101677.13;5058882;28;20464;-68
2022/10/02 09:20:17;;;;;;;6.22;2.53;;;;;;;20.37;56.45;101673.66;5061698;28;20028;-68
2022/10/02 09:22:55;;;;;;;8.65;2.50;;;;;;;20.37;56.46;101677.13;5061217;28;20036;-68
2022/10/02 09:25:37;;;;;;;8.43;2.75;;;;;;;20.38;56.28;101680.63;5060887;28;20065;-71
2022/10/02 09:28:22;;;;;;;6.55;2.22;;;;;;;20.24;56.36;101652.59;5061304;28;20437;-66
2022/10/02 09:31:01;;;;;;;6.72;2.20;;;;;;;20.35;56.09;101668.47;5060460;28;20102;-66
2022/10/02 09:34:10;;;;;;;7.65;2.33;;;;;;;20.29;55.93;101668.94;5059296;28;20055;-69
2022/10/02 09:37:01;;;;;;;4.63;1.90;;;;;;;20.29;56.75;101683.00;5061309;28;20319;-69
2022/10/02 09:39:38;;;;;;;9.60;2.60;;;;;;;20.28;56.21;101686.66;5059978;28;20376;-66
2022/10/02 09:42:19;;;;;;;6.53;2.17;;;;;;;20.27;56.36;101686.75;5061822;28;20044;-66
2022/10/02 09:45:16;;;;;;;6.95;2.45;;;;;;;20.19;56.19;101684.69;5062035;28;20032;-66
2022/10/02 09:48:07;;;;;;;5.50;1.88;;;;;;;20.24;56.23;101695.78;5061678;28;20051;-68
2022/10/02 09:51:04;;;;;;;6.63;2.45;;;;;;;20.22;56.21;101692.41;5061569;28;20047;-68
2022/10/02 09:53:47;;;;;;;6.53;2.10;;;;;;;20.22;56.13;101696.84;5061288;28;20064;-67
2022/10/02 09:56:29;;;;;;;6.65;2.35;;;;;;;20.18;56.15;101695.41;5061473;28;20081;-67
2022/10/02 09:59:34;;;;;;;5.32;2.05;;;;;;;20.20;56.22;101704.91;5061351;28;20051;-65
2022/10/02 10:02:23;;;;;;;6.97;2.40;;;;;;;20.14;56.64;101691.28;5061872;28;20036;-64
2022/10/02 10:05:08;;;;;;;5.75;2.00;;;;;;;20.10;56.85;101686.22;5059031;28;20815;-73
2022/10/02 10:08:00;;;;;;;8.07;2.13;;;;;;;20.06;56.89;101682.16;5060454;28;20056;-73
2022/10/02 10:10:40;;;;;;;8.50;2.28;;;;;;;20.10;57.10;101690.69;5060413;28;20093;-69
2022/10/02 10:13:51;;;;;;;5.68;2.03;;;;;;;20.20;56.87;101714.66;5060864;28;20472;-68
2022/10/02 10:16:47;;;;;;;7.55;2.25;;;;;;;20.23;56.93;101703.81;5060486;28;20096;-68
2022/10/02 10:19:40;;;;;;;7.00;2.20;;;;;;;20.27;57.10;101708.78;5059591;28;20111;-67
2022/10/02 10:22:25;;;;;;;7.78;2.40;;;;;;;20.27;56.89;101716.72;5059758;28;20033;-67
2022/10/02 10:25:14;;;;;;;6.47;2.33;;;;;;;20.22;56.43;101721.53;5059468;28;20123;-70
2022/10/02 10:28:08;;;;;;;6.05;1.83;;;;;;;20.25;56.57;101728.38;5060593;28;20082;-69
2022/10/02 10:30:55;;;;;;;7.13;1.90;;;;;;;20.25;56.58;101723.94;5060101;28;20428;-68
2022/10/02 10:33:51;;;;;;;7.15;2.20;;;;;;;20.24;56.76;101737.28;5060866;28;20109;-66
2022/10/02 10:40:05;;;;;;;7.55;2.05;;;;;;;20.27;56.99;101748.47;5059966;28;20114;-67
2022/10/02 10:42:53;;;;;;;6.88;2.15;;;;;;;20.34;56.81;101755.94;5058015;28;20564;-69
2022/10/02 10:45:39;;;;;;;8.40;2.30;;;;;;;20.37;56.68;101767.13;5064350;28;20115;-69
2022/10/02 10:48:28;;;;;;;11.27;2.35;;;;;;;20.28;56.90;101739.59;5063901;28;20064;-71
2022/10/02 10:51:22;;;;;;;8.95;2.20;;;;;;;20.45;56.27;101762.09;5063628;28;20036;-69
2022/10/02 10:54:13;;;;;;;8.50;2.17;;;;;;;20.45;56.75;101756.81;5064007;28;20071;-68
2022/10/02 10:57:09;;;;;;;9.48;3.25;;;;;;;20.49;56.72;101765.38;5063804;28;20277;-70
2022/10/02 10:59:52;;;;;;;6.05;1.90;;;;;;;20.37;56.39;101740.66;5052733;28;20048;-69
2022/10/02 11:02:27;;;;;;;7.65;2.00;;;;;;;20.44;56.54;101755.13;5063809;28;20138;-72
2022/10/02 11:05:14;;;;;;;5.82;2.10;;;;;;;20.48;56.64;101753.09;5063777;28;20062;-72
2022/10/02 11:08:01;;;;;;;7.45;2.08;;;;;;;20.50;56.46;101751.16;5063675;28;20036;-69
2022/10/02 11:10:51;;;;;;;5.82;1.80;;;;;;;20.44;56.78;101733.09;5064234;28;20257;-71
2022/10/02 11:13:42;;;;;;;9.90;2.13;;;;;;;20.46;56.74;101744.44;5063837;28;20043;-69
2022/10/02 11:16:42;;;;;;;10.43;2.30;;;;;;;20.50;56.44;101750.31;5063594;28;20028;-71
2022/10/02 11:19:34;;;;;;;5.25;1.90;;;;;;;20.52;56.77;101753.69;5063359;28;20686;-69
2022/10/02 11:22:21;;;;;;;6.13;1.85;;;;;;;20.54;56.60;101759.72;5063037;28;20085;-71
2022/10/02 11:25:14;;;;;;;6.47;2.42;;;;;;;20.54;56.34;101765.03;5063529;28;20127;-69
2022/10/02 11:28:08;;;;;;;6.20;2.00;;;;;;;20.57;56.63;101762.97;5063712;28;20036;-69
2022/10/02 11:30:55;;;;;;;6.18;2.05;;;;;;;20.54;56.32;101767.69;5063072;28;20056;-69
2022/10/02 11:33:29;;;;;;;13.13;2.45;;;;;;;20.57;56.54;101772.69;5063659;28;20051;-68
2022/10/02 11:36:13;;;;;;;8.20;1.95;;;;;;;20.59;56.35;101776.09;5061682;28;20421;-69
2022/10/02 11:39:04;;;;;;;6.22;1.80;;;;;;;20.58;56.40;101772.59;5061820;28;20115;-65
2022/10/02 11:41:45;;;;;;;6.20;1.75;;;;;;;20.54;56.27;101775.63;5061283;28;20060;-65
2022/10/02 11:44:53;;;;;;;6.15;1.92;;;;;;;20.50;56.19;101764.38;5059762;28;20379;-66
2022/10/02 11:48:00;;;;;;;6.80;1.80;;;;;;;20.55;56.21;101782.56;5045544;28;20048;-66
2022/10/02 11:50:39;;;;;;;6.43;2.38;;;;;;;20.54;55.98;101781.75;5050950;28;20079;-68
2022/10/02 11:53:22;;;;;;;7.80;1.73;;;;;;;20.53;56.12;101772.09;5062792;28;20032;-65
2022/10/02 11:56:33;;;;;;;8.43;1.98;;;;;;;20.54;56.25;101778.25;5062498;28;20029;-64
2022/10/02 11:59:17;;;;;;;6.03;1.90;;;;;;;20.53;56.35;101782.69;5046983;28;20097;-67
2022/10/02 12:02:00;;;;;;;6.75;1.85;;;;;;;20.44;56.46;101767.50;5063471;28;20147;-66
2022/10/02 12:04:34;;;;;;;7.30;1.80;;;;;;;20.48;56.48;101779.56;5062307;28;20102;-67
2022/10/02 12:07:03;;;;;;;;;;;;;;;20.44;56.61;101788.69;5060740;28;20037;-65
2022/10/02 12:09:54;;;;;;;7.35;1.83;;;;;;;20.45;56.52;101790.38;5059954;28;19923;-67
2022/10/02 12:12:22;;;;;;;6.05;2.20;;;;;;;20.37;56.61;101779.53;5060112;28;20054;-66
2022/10/02 12:15:24;;;;;;;6.47;1.88;;;;;;;20.40;56.57;101796.03;5060911;28;20505;-65
2022/10/02 12:18:15;;;;;;;6.65;1.95;;;;;;;20.37;56.76;101803.38;5031270;28;20129;-67
2022/10/02 12:27:24;;;;;;;7.88;2.20;;;;;;;20.38;56.95;101813.00;5062020;28;20085;-67
2022/10/02 12:30:04;;;;;;;7.43;1.88;;;;;;;20.33;56.54;101801.91;5054473;28;20036;-65
2022/10/02 12:32:48;;;;;;;6.43;1.95;;;;;;;20.28;56.71;101803.13;5063121;28;20039;-65
2022/10/02 12:35:56;;;;;;;6.63;1.85;;;;;;;20.35;57.03;101816.72;5062682;28;20391;-64
2022/10/02 12:38:54;;;;;;;10.98;2.38;;;;;;;20.36;56.76;101820.19;5041806;28;20037;-65
2022/10/02 12:41:44;;;;;;;6.05;1.83;;;;;;;20.27;56.73;101801.41;5049584;28;20040;-66